sensor_id;sensor_type;location;lat;lon;timestamp;temperature;humidity
37240;DHT22;23130;48.760;9.178;2022-12-07T00:01:27;3.50;99.90
37240;DHT22;23130;48.760;9.178;2022-12-07T00:03:55;3.50;99.90
37240;DHT22;23130;48.760;9.178;2022-12-07T00:06:29;3.50;99.90
37240;DHT22;23130;48.760;9.178;2022-12-07T00:08:55;3.50;99.90
37240;DHT22;23130;48.760;9.178;2022-12-07T00:11:22;3.50;99.90
37240;DHT22;23130;48.760;9.178;2022-12-07T00:14:01;3.50;99.90
37240;DHT22;23130;48.760;9.178;2022-12-07T00:16:29;3.50;99.90
37240;DHT22;23130;48.760;9.178;2022-12-07T00:18:56;3.50;99.90
37240;DHT22;23130;48.760;9.178;2022-12-07T00:21:24;3.50;99.90
37240;DHT22;23130;48.760;9.178;2022-12-07T00:23:51;3.50;99.90
37240;DHT22;23130;48.760;9.178;2022-12-07T00:26:22;3.50;99.90
37240;DHT22;23130;48.760;9.178;2022-12-07T00:28:55;3.50;99.90
37240;DHT22;23130;48.760;9.178;2022-12-07T00:31:23;3.50;99.90
37240;DHT22;23130;48.760;9.178;2022-12-07T00:33:50;3.50;99.90
37240;DHT22;23130;48.760;9.178;2022-12-07T00:36:18;3.50;99.90
37240;DHT22;23130;48.760;9.178;2022-12-07T00:38:44;3.40;99.90
37240;DHT22;23130;48.760;9.178;2022-12-07T00:41:18;3.50;99.90
37240;DHT22;23130;48.760;9.178;2022-12-07T00:43:45;3.50;99.90
37240;DHT22;23130;48.760;9.178;2022-12-07T00:46:11;3.50;99.90
37240;DHT22;23130;48.760;9.178;2022-12-07T00:48:37;3.50;99.90
37240;DHT22;23130;48.760;9.178;2022-12-07T00:51:04;3.40;99.90
37240;DHT22;23130;48.760;9.178;2022-12-07T00:53:30;3.40;99.90
37240;DHT22;23130;48.760;9.178;2022-12-07T00:55:57;3.40;99.90
37240;DHT22;23130;48.760;9.178;2022-12-07T00:58:23;3.40;99.90
37240;DHT22;23130;48.760;9.178;2022-12-07T01:00:49;3.40;99.90
37240;DHT22;23130;48.760;9.178;2022-12-07T01:03:15;3.40;99.90
37240;DHT22;23130;48.760;9.178;2022-12-07T01:05:52;3.40;99.90
37240;DHT22;23130;48.760;9.178;2022-12-07T01:08:18;3.40;99.90
37240;DHT22;23130;48.760;9.178;2022-12-07T01:10:44;3.30;99.90
37240;DHT22;23130;48.760;9.178;2022-12-07T01:13:10;3.30;99.90
37240;DHT22;23130;48.760;9.178;2022-12-07T01:15:42;3.20;99.90
37240;DHT22;23130;48.760;9.178;2022-12-07T01:18:07;3.20;99.90
37240;DHT22;23130;48.760;9.178;2022-12-07T01:20:33;3.20;99.90
37240;DHT22;23130;48.760;9.178;2022-12-07T01:22:59;3.20;99.90
37240;DHT22;23130;48.760;9.178;2022-12-07T01:25:24;3.20;99.90
37240;DHT22;23130;48.760;9.178;2022-12-07T01:27:50;3.20;99.90
37240;DHT22;23130;48.760;9.178;2022-12-07T01:30:15;3.20;99.90
37240;DHT22;23130;48.760;9.178;2022-12-07T01:32:41;3.10;99.90
37240;DHT22;23130;48.760;9.178;2022-12-07T01:35:07;3.10;99.90
37240;DHT22;23130;48.760;9.178;2022-12-07T01:37:37;3.10;99.90
37240;DHT22;23130;48.760;9.178;2022-12-07T01:40:05;3.10;99.90
37240;DHT22;23130;48.760;9.178;2022-12-07T01:42:30;3.10;99.90
37240;DHT22;23130;48.760;9.178;2022-12-07T01:47:47;3.10;99.90
37240;DHT22;23130;48.760;9.178;2022-12-07T01:50:15;3.10;99.90
37240;DHT22;23130;48.760;9.178;2022-12-07T01:52:41;3.10;99.90
37240;DHT22;23130;48.760;9.178;2022-12-07T01:55:10;3.10;99.90
37240;DHT22;23130;48.760;9.178;2022-12-07T01:57:41;3.00;99.90
37240;DHT22;23130;48.760;9.178;2022-12-07T02:00:09;3.10;99.90
37240;DHT22;23130;48.760;9.178;2022-12-07T02:05:27;3.00;99.90
37240;DHT22;23130;48.760;9.178;2022-12-07T02:07:55;3.00;99.90
37240;DHT22;23130;48.760;9.178;2022-12-07T02:10:27;3.00;99.90
37240;DHT22;23130;48.760;9.178;2022-12-07T02:12:56;3.10;99.90
37240;DHT22;23130;48.760;9.178;2022-12-07T02:15:32;3.00;99.90
37240;DHT22;23130;48.760;9.178;2022-12-07T02:21:10;3.00;99.90
37240;DHT22;23130;48.760;9.178;2022-12-07T02:29:53;2.90;99.90
37240;DHT22;23130;48.760;9.178;2022-12-07T02:32:27;2.90;99.90
37240;DHT22;23130;48.760;9.178;2022-12-07T02:35:04;2.90;99.90
37240;DHT22;23130;48.760;9.178;2022-12-07T02:40:18;2.90;99.90
37240;DHT22;23130;48.760;9.178;2022-12-07T02:42:49;2.80;99.90
37240;DHT22;23130;48.760;9.178;2022-12-07T02:45:20;2.80;99.90
37240;DHT22;23130;48.760;9.178;2022-12-07T02:47:51;2.80;99.90
37240;DHT22;23130;48.760;9.178;2022-12-07T02:50:21;2.70;99.90
37240;DHT22;23130;48.760;9.178;2022-12-07T02:52:47;2.70;99.90
37240;DHT22;23130;48.760;9.178;2022-12-07T02:55:15;2.70;99.90
37240;DHT22;23130;48.760;9.178;2022-12-07T02:57:53;2.70;99.90
37240;DHT22;23130;48.760;9.178;2022-12-07T03:00:20;2.70;99.90
37240;DHT22;23130;48.760;9.178;2022-12-07T03:03:09;2.60;99.90
37240;DHT22;23130;48.760;9.178;2022-12-07T03:06:39;2.60;99.90
37240;DHT22;23130;48.760;9.178;2022-12-07T03:08:48;2.60;99.90
37240;DHT22;23130;48.760;9.178;2022-12-07T03:11:45;2.60;99.90
37240;DHT22;23130;48.760;9.178;2022-12-07T03:14:31;2.60;99.90
37240;DHT22;23130;48.760;9.178;2022-12-07T03:17:05;2.60;99.90
37240;DHT22;23130;48.760;9.178;2022-12-07T03:19:34;2.60;99.90
37240;DHT22;23130;48.760;9.178;2022-12-07T03:22:03;2.60;99.90
37240;DHT22;23130;48.760;9.178;2022-12-07T03:24:52;2.60;99.90
37240;DHT22;23130;48.760;9.178;2022-12-07T03:27:33;2.60;99.90
37240;DHT22;23130;48.760;9.178;2022-12-07T03:30:03;2.60;99.90
37240;DHT22;23130;48.760;9.178;2022-12-07T03:33:02;2.60;99.90
37240;DHT22;23130;48.760;9.178;2022-12-07T03:35:45;2.60;99.90
37240;DHT22;23130;48.760;9.178;2022-12-07T03:38:32;2.60;99.90
37240;DHT22;23130;48.760;9.178;2022-12-07T03:41:08;2.60;99.90
37240;DHT22;23130;48.760;9.178;2022-12-07T03:43:36;2.60;99.90
37240;DHT22;23130;48.760;9.178;2022-12-07T03:46:22;2.60;99.90
37240;DHT22;23130;48.760;9.178;2022-12-07T03:54:52;2.60;99.90
37240;DHT22;23130;48.760;9.178;2022-12-07T03:57:20;2.60;99.90
37240;DHT22;23130;48.760;9.178;2022-12-07T03:59:47;2.60;99.90
37240;DHT22;23130;48.760;9.178;2022-12-07T04:02:13;2.60;99.90
37240;DHT22;23130;48.760;9.178;2022-12-07T04:04:39;2.60;99.90
37240;DHT22;23130;48.760;9.178;2022-12-07T04:07:05;2.50;99.90
37240;DHT22;23130;48.760;9.178;2022-12-07T04:09:31;2.60;99.90
37240;DHT22;23130;48.760;9.178;2022-12-07T04:11:56;2.50;99.90
37240;DHT22;23130;48.760;9.178;2022-12-07T04:14:22;2.50;99.90
37240;DHT22;23130;48.760;9.178;2022-12-07T04:16:53;2.50;99.90
37240;DHT22;23130;48.760;9.178;2022-12-07T04:19:21;2.40;99.90
37240;DHT22;23130;48.760;9.178;2022-12-07T04:21:47;2.40;99.90
37240;DHT22;23130;48.760;9.178;2022-12-07T04:24:14;2.40;99.90
37240;DHT22;23130;48.760;9.178;2022-12-07T04:26:40;2.30;99.90
37240;DHT22;23130;48.760;9.178;2022-12-07T04:29:06;2.30;99.90
37240;DHT22;23130;48.760;9.178;2022-12-07T04:31:32;2.30;99.90
37240;DHT22;23130;48.760;9.178;2022-12-07T04:33:57;2.30;99.90
37240;DHT22;23130;48.760;9.178;2022-12-07T04:36:23;2.30;99.90
37240;DHT22;23130;48.760;9.178;2022-12-07T04:38:49;2.30;99.90
37240;DHT22;23130;48.760;9.178;2022-12-07T04:41:14;2.40;99.90
37240;DHT22;23130;48.760;9.178;2022-12-07T04:43:40;2.40;99.90
37240;DHT22;23130;48.760;9.178;2022-12-07T04:46:05;2.40;99.90
37240;DHT22;23130;48.760;9.178;2022-12-07T04:48:31;2.50;99.90
37240;DHT22;23130;48.760;9.178;2022-12-07T04:50:57;2.60;99.90
37240;DHT22;23130;48.760;9.178;2022-12-07T04:53:22;2.60;99.90
37240;DHT22;23130;48.760;9.178;2022-12-07T04:55:48;2.60;99.90
37240;DHT22;23130;48.760;9.178;2022-12-07T04:58:14;2.60;99.90
37240;DHT22;23130;48.760;9.178;2022-12-07T05:00:40;2.60;99.90
37240;DHT22;23130;48.760;9.178;2022-12-07T05:03:06;2.60;99.90
37240;DHT22;23130;48.760;9.178;2022-12-07T05:05:31;2.40;99.90
37240;DHT22;23130;48.760;9.178;2022-12-07T05:07:57;2.40;99.90
37240;DHT22;23130;48.760;9.178;2022-12-07T05:10:23;2.40;99.90
37240;DHT22;23130;48.760;9.178;2022-12-07T05:12:48;2.40;99.90
37240;DHT22;23130;48.760;9.178;2022-12-07T05:15:14;2.40;99.90
37240;DHT22;23130;48.760;9.178;2022-12-07T05:17:40;2.40;99.90
37240;DHT22;23130;48.760;9.178;2022-12-07T05:20:06;2.40;99.90
37240;DHT22;23130;48.760;9.178;2022-12-07T05:22:33;2.20;99.90
37240;DHT22;23130;48.760;9.178;2022-12-07T05:24:59;2.10;99.90
37240;DHT22;23130;48.760;9.178;2022-12-07T05:27:24;2.00;99.90
37240;DHT22;23130;48.760;9.178;2022-12-07T05:29:50;1.90;99.90
37240;DHT22;23130;48.760;9.178;2022-12-07T05:32:16;1.90;99.90
37240;DHT22;23130;48.760;9.178;2022-12-07T05:34:42;1.90;99.90
37240;DHT22;23130;48.760;9.178;2022-12-07T05:37:08;1.90;99.90
37240;DHT22;23130;48.760;9.178;2022-12-07T05:39:34;1.90;99.90
37240;DHT22;23130;48.760;9.178;2022-12-07T05:41:59;1.70;99.90
37240;DHT22;23130;48.760;9.178;2022-12-07T05:44:37;1.70;99.90
37240;DHT22;23130;48.760;9.178;2022-12-07T05:47:03;1.60;99.90
37240;DHT22;23130;48.760;9.178;2022-12-07T05:49:28;1.50;99.90
37240;DHT22;23130;48.760;9.178;2022-12-07T05:51:54;1.60;99.90
37240;DHT22;23130;48.760;9.178;2022-12-07T05:54:19;1.60;99.90
37240;DHT22;23130;48.760;9.178;2022-12-07T05:56:45;1.60;99.90
37240;DHT22;23130;48.760;9.178;2022-12-07T05:59:11;1.60;99.90
37240;DHT22;23130;48.760;9.178;2022-12-07T06:02:03;1.50;99.90
37240;DHT22;23130;48.760;9.178;2022-12-07T06:04:31;1.50;99.90
37240;DHT22;23130;48.760;9.178;2022-12-07T06:06:57;1.50;99.90
37240;DHT22;23130;48.760;9.178;2022-12-07T06:09:24;1.50;99.90
37240;DHT22;23130;48.760;9.178;2022-12-07T06:11:51;1.50;99.90
37240;DHT22;23130;48.760;9.178;2022-12-07T06:14:35;1.50;99.90
37240;DHT22;23130;48.760;9.178;2022-12-07T06:17:02;1.50;99.90
37240;DHT22;23130;48.760;9.178;2022-12-07T06:19:27;1.60;99.90
37240;DHT22;23130;48.760;9.178;2022-12-07T06:21:53;1.60;99.90
37240;DHT22;23130;48.760;9.178;2022-12-07T06:24:19;1.60;99.90
37240;DHT22;23130;48.760;9.178;2022-12-07T06:26:45;1.60;99.90
37240;DHT22;23130;48.760;9.178;2022-12-07T06:29:11;1.70;99.90
37240;DHT22;23130;48.760;9.178;2022-12-07T06:31:37;1.70;99.90
37240;DHT22;23130;48.760;9.178;2022-12-07T06:34:06;1.70;99.90
37240;DHT22;23130;48.760;9.178;2022-12-07T06:36:32;1.80;99.90
37240;DHT22;23130;48.760;9.178;2022-12-07T06:38:57;1.90;99.90
37240;DHT22;23130;48.760;9.178;2022-12-07T06:41:23;1.90;99.90
37240;DHT22;23130;48.760;9.178;2022-12-07T06:43:49;1.90;99.90
37240;DHT22;23130;48.760;9.178;2022-12-07T06:46:16;2.00;99.90
37240;DHT22;23130;48.760;9.178;2022-12-07T06:48:42;2.00;99.90
37240;DHT22;23130;48.760;9.178;2022-12-07T06:51:09;2.00;99.90
37240;DHT22;23130;48.760;9.178;2022-12-07T06:53:35;2.00;99.90
37240;DHT22;23130;48.760;9.178;2022-12-07T06:56:01;2.10;99.90
37240;DHT22;23130;48.760;9.178;2022-12-07T06:58:27;2.10;99.90
37240;DHT22;23130;48.760;9.178;2022-12-07T07:00:53;2.10;99.90
37240;DHT22;23130;48.760;9.178;2022-12-07T07:03:19;2.10;99.90
37240;DHT22;23130;48.760;9.178;2022-12-07T07:05:45;2.10;99.90
37240;DHT22;23130;48.760;9.178;2022-12-07T07:08:11;2.10;99.90
37240;DHT22;23130;48.760;9.178;2022-12-07T07:10:37;2.10;99.90
37240;DHT22;23130;48.760;9.178;2022-12-07T07:13:04;2.20;99.90
37240;DHT22;23130;48.760;9.178;2022-12-07T07:15:30;2.10;99.90
37240;DHT22;23130;48.760;9.178;2022-12-07T07:17:55;2.20;99.90
37240;DHT22;23130;48.760;9.178;2022-12-07T07:20:21;2.20;99.90
37240;DHT22;23130;48.760;9.178;2022-12-07T07:22:47;2.30;99.90
37240;DHT22;23130;48.760;9.178;2022-12-07T07:25:13;2.30;99.90
37240;DHT22;23130;48.760;9.178;2022-12-07T07:27:39;2.40;99.90
37240;DHT22;23130;48.760;9.178;2022-12-07T07:30:05;2.40;99.90
37240;DHT22;23130;48.760;9.178;2022-12-07T07:32:31;2.40;99.90
37240;DHT22;23130;48.760;9.178;2022-12-07T07:34:57;2.50;99.90
37240;DHT22;23130;48.760;9.178;2022-12-07T07:37:22;2.50;99.90
37240;DHT22;23130;48.760;9.178;2022-12-07T07:39:48;2.60;99.90
37240;DHT22;23130;48.760;9.178;2022-12-07T07:42:14;2.60;99.90
37240;DHT22;23130;48.760;9.178;2022-12-07T07:44:40;2.60;99.90
37240;DHT22;23130;48.760;9.178;2022-12-07T07:47:05;2.70;99.90
37240;DHT22;23130;48.760;9.178;2022-12-07T07:49:31;2.70;99.90
37240;DHT22;23130;48.760;9.178;2022-12-07T07:51:56;2.70;99.90
37240;DHT22;23130;48.760;9.178;2022-12-07T07:54:22;2.70;99.90
37240;DHT22;23130;48.760;9.178;2022-12-07T07:56:48;2.80;99.90
37240;DHT22;23130;48.760;9.178;2022-12-07T07:59:14;2.90;99.90
37240;DHT22;23130;48.760;9.178;2022-12-07T08:01:40;3.00;99.90
37240;DHT22;23130;48.760;9.178;2022-12-07T08:04:05;3.00;99.90
37240;DHT22;23130;48.760;9.178;2022-12-07T08:06:31;3.00;99.90
37240;DHT22;23130;48.760;9.178;2022-12-07T08:08:57;3.10;99.90
37240;DHT22;23130;48.760;9.178;2022-12-07T08:11:24;3.20;99.90
37240;DHT22;23130;48.760;9.178;2022-12-07T08:13:49;3.20;99.90
37240;DHT22;23130;48.760;9.178;2022-12-07T08:16:15;3.20;99.90
37240;DHT22;23130;48.760;9.178;2022-12-07T08:18:41;3.30;99.90
37240;DHT22;23130;48.760;9.178;2022-12-07T08:21:11;3.40;99.90
37240;DHT22;23130;48.760;9.178;2022-12-07T08:23:37;3.40;99.90
37240;DHT22;23130;48.760;9.178;2022-12-07T08:26:08;3.40;99.90
37240;DHT22;23130;48.760;9.178;2022-12-07T08:28:34;3.50;99.90
37240;DHT22;23130;48.760;9.178;2022-12-07T08:31:02;3.50;99.90
37240;DHT22;23130;48.760;9.178;2022-12-07T08:33:28;3.60;99.90
37240;DHT22;23130;48.760;9.178;2022-12-07T08:35:53;3.70;99.90
37240;DHT22;23130;48.760;9.178;2022-12-07T08:38:19;3.80;99.90
37240;DHT22;23130;48.760;9.178;2022-12-07T08:40:52;3.80;99.90
37240;DHT22;23130;48.760;9.178;2022-12-07T08:43:18;3.90;99.90
37240;DHT22;23130;48.760;9.178;2022-12-07T08:45:43;4.00;99.90
37240;DHT22;23130;48.760;9.178;2022-12-07T08:48:11;4.00;99.90
37240;DHT22;23130;48.760;9.178;2022-12-07T08:50:38;4.10;99.90
37240;DHT22;23130;48.760;9.178;2022-12-07T08:53:05;4.20;99.90
37240;DHT22;23130;48.760;9.178;2022-12-07T08:55:33;4.20;99.90
37240;DHT22;23130;48.760;9.178;2022-12-07T08:57:59;4.30;99.90
37240;DHT22;23130;48.760;9.178;2022-12-07T09:00:26;4.40;99.90
37240;DHT22;23130;48.760;9.178;2022-12-07T09:02:51;4.40;99.90
37240;DHT22;23130;48.760;9.178;2022-12-07T09:05:18;4.50;99.90
37240;DHT22;23130;48.760;9.178;2022-12-07T09:07:46;4.60;99.90
37240;DHT22;23130;48.760;9.178;2022-12-07T09:10:14;4.60;99.90
37240;DHT22;23130;48.760;9.178;2022-12-07T09:12:39;4.70;99.90
37240;DHT22;23130;48.760;9.178;2022-12-07T09:15:05;4.70;99.90
37240;DHT22;23130;48.760;9.178;2022-12-07T09:17:34;4.70;99.90
37240;DHT22;23130;48.760;9.178;2022-12-07T09:20:01;4.90;99.90
37240;DHT22;23130;48.760;9.178;2022-12-07T09:22:30;4.90;99.90
37240;DHT22;23130;48.760;9.178;2022-12-07T09:24:59;5.00;99.90
37240;DHT22;23130;48.760;9.178;2022-12-07T09:27:26;5.10;99.90
37240;DHT22;23130;48.760;9.178;2022-12-07T09:29:52;5.10;99.90
37240;DHT22;23130;48.760;9.178;2022-12-07T09:32:18;5.20;99.90
37240;DHT22;23130;48.760;9.178;2022-12-07T09:34:44;5.20;99.90
37240;DHT22;23130;48.760;9.178;2022-12-07T09:37:09;5.20;99.90
37240;DHT22;23130;48.760;9.178;2022-12-07T09:39:38;5.30;99.90
37240;DHT22;23130;48.760;9.178;2022-12-07T09:42:05;5.30;99.90
37240;DHT22;23130;48.760;9.178;2022-12-07T09:44:31;5.40;99.90
37240;DHT22;23130;48.760;9.178;2022-12-07T09:46:57;5.50;99.90
37240;DHT22;23130;48.760;9.178;2022-12-07T09:49:28;5.60;99.90
37240;DHT22;23130;48.760;9.178;2022-12-07T09:54:36;5.70;99.90
37240;DHT22;23130;48.760;9.178;2022-12-07T09:57:02;5.70;99.90
37240;DHT22;23130;48.760;9.178;2022-12-07T09:59:29;5.70;99.90
37240;DHT22;23130;48.760;9.178;2022-12-07T10:01:55;5.70;99.90
37240;DHT22;23130;48.760;9.178;2022-12-07T10:04:26;5.70;99.90
37240;DHT22;23130;48.760;9.178;2022-12-07T10:06:54;5.70;99.90
37240;DHT22;23130;48.760;9.178;2022-12-07T10:09:21;5.70;99.90
37240;DHT22;23130;48.760;9.178;2022-12-07T10:14:27;5.70;99.90
37240;DHT22;23130;48.760;9.178;2022-12-07T10:16:54;5.70;99.90
37240;DHT22;23130;48.760;9.178;2022-12-07T10:19:22;5.70;99.90
37240;DHT22;23130;48.760;9.178;2022-12-07T10:22:12;5.80;99.90
37240;DHT22;23130;48.760;9.178;2022-12-07T10:24:39;5.90;99.90
37240;DHT22;23130;48.760;9.178;2022-12-07T10:29:48;5.90;99.90
37240;DHT22;23130;48.760;9.178;2022-12-07T10:34:41;6.00;99.90
37240;DHT22;23130;48.760;9.178;2022-12-07T10:39:45;6.00;99.90
37240;DHT22;23130;48.760;9.178;2022-12-07T10:42:28;6.00;99.90
37240;DHT22;23130;48.760;9.178;2022-12-07T10:45:14;6.00;99.90
37240;DHT22;23130;48.760;9.178;2022-12-07T10:56:11;5.90;99.90
37240;DHT22;23130;48.760;9.178;2022-12-07T11:01:33;5.80;99.90
37240;DHT22;23130;48.760;9.178;2022-12-07T11:04:19;5.70;99.90
37240;DHT22;23130;48.760;9.178;2022-12-07T11:07:17;5.60;99.90
37240;DHT22;23130;48.760;9.178;2022-12-07T11:10:10;5.50;99.90
37240;DHT22;23130;48.760;9.178;2022-12-07T11:18:11;5.40;99.90
37240;DHT22;23130;48.760;9.178;2022-12-07T11:31:52;5.50;99.90
37240;DHT22;23130;48.760;9.178;2022-12-07T11:34:36;5.40;99.90
37240;DHT22;23130;48.760;9.178;2022-12-07T11:37:11;5.40;99.90
37240;DHT22;23130;48.760;9.178;2022-12-07T11:39:58;5.40;99.90
37240;DHT22;23130;48.760;9.178;2022-12-07T11:45:20;5.40;99.90
37240;DHT22;23130;48.760;9.178;2022-12-07T11:50:52;5.30;99.90
37240;DHT22;23130;48.760;9.178;2022-12-07T11:56:15;5.30;99.90
37240;DHT22;23130;48.760;9.178;2022-12-07T12:03:53;5.20;99.90
37240;DHT22;23130;48.760;9.178;2022-12-07T12:06:21;5.20;99.90
37240;DHT22;23130;48.760;9.178;2022-12-07T12:08:59;5.20;99.90
37240;DHT22;23130;48.760;9.178;2022-12-07T12:11:40;5.20;99.90
37240;DHT22;23130;48.760;9.178;2022-12-07T12:21:56;5.10;99.90
37240;DHT22;23130;48.760;9.178;2022-12-07T12:24:26;5.10;99.90
37240;DHT22;23130;48.760;9.178;2022-12-07T12:27:01;5.00;99.90
37240;DHT22;23130;48.760;9.178;2022-12-07T12:29:33;5.00;99.90
37240;DHT22;23130;48.760;9.178;2022-12-07T12:32:15;5.00;99.90
37240;DHT22;23130;48.760;9.178;2022-12-07T12:42:54;4.90;99.90
37240;DHT22;23130;48.760;9.178;2022-12-07T12:45:28;4.90;99.90
37240;DHT22;23130;48.760;9.178;2022-12-07T12:48:03;4.90;99.90
37240;DHT22;23130;48.760;9.178;2022-12-07T12:50:35;5.00;99.90
37240;DHT22;23130;48.760;9.178;2022-12-07T12:55:46;4.90;99.90
37240;DHT22;23130;48.760;9.178;2022-12-07T13:00:46;4.90;99.90
37240;DHT22;23130;48.760;9.178;2022-12-07T13:03:30;4.90;99.90
37240;DHT22;23130;48.760;9.178;2022-12-07T13:08:45;4.90;99.90
37240;DHT22;23130;48.760;9.178;2022-12-07T13:11:20;4.90;99.90
37240;DHT22;23130;48.760;9.178;2022-12-07T13:13:51;4.90;99.90
37240;DHT22;23130;48.760;9.178;2022-12-07T13:16:37;4.90;99.90
37240;DHT22;23130;48.760;9.178;2022-12-07T13:19:21;5.00;99.90
37240;DHT22;23130;48.760;9.178;2022-12-07T13:21:48;5.00;99.90
37240;DHT22;23130;48.760;9.178;2022-12-07T13:24:14;5.10;99.90
37240;DHT22;23130;48.760;9.178;2022-12-07T13:26:42;5.10;99.90
37240;DHT22;23130;48.760;9.178;2022-12-07T13:29:16;5.20;99.90
37240;DHT22;23130;48.760;9.178;2022-12-07T13:31:47;5.10;99.90
37240;DHT22;23130;48.760;9.178;2022-12-07T13:34:37;5.20;99.90
37240;DHT22;23130;48.760;9.178;2022-12-07T13:37:32;5.10;99.90
37240;DHT22;23130;48.760;9.178;2022-12-07T13:40:00;5.00;99.90
37240;DHT22;23130;48.760;9.178;2022-12-07T13:44:56;5.00;99.90
37240;DHT22;23130;48.760;9.178;2022-12-07T13:47:33;5.00;99.90
37240;DHT22;23130;48.760;9.178;2022-12-07T13:50:00;4.90;99.90
37240;DHT22;23130;48.760;9.178;2022-12-07T13:52:28;4.90;99.90
37240;DHT22;23130;48.760;9.178;2022-12-07T13:57:29;4.90;99.90
37240;DHT22;23130;48.760;9.178;2022-12-07T14:00:00;4.80;99.90
37240;DHT22;23130;48.760;9.178;2022-12-07T14:02:31;4.80;99.90
37240;DHT22;23130;48.760;9.178;2022-12-07T14:05:14;4.90;99.90
37240;DHT22;23130;48.760;9.178;2022-12-07T14:13:27;4.90;99.90
37240;DHT22;23130;48.760;9.178;2022-12-07T14:15:54;4.90;99.90
37240;DHT22;23130;48.760;9.178;2022-12-07T14:18:27;4.80;99.90
37240;DHT22;23130;48.760;9.178;2022-12-07T14:21:05;4.80;99.90
37240;DHT22;23130;48.760;9.178;2022-12-07T14:23:31;4.80;99.90
37240;DHT22;23130;48.760;9.178;2022-12-07T14:26:07;4.80;99.90
37240;DHT22;23130;48.760;9.178;2022-12-07T14:28:36;4.70;99.90
37240;DHT22;23130;48.760;9.178;2022-12-07T14:31:02;4.70;99.90
37240;DHT22;23130;48.760;9.178;2022-12-07T14:33:28;4.70;99.90
37240;DHT22;23130;48.760;9.178;2022-12-07T14:35:55;4.70;99.90
37240;DHT22;23130;48.760;9.178;2022-12-07T14:38:23;4.60;99.90
37240;DHT22;23130;48.760;9.178;2022-12-07T14:40:51;4.60;99.90
37240;DHT22;23130;48.760;9.178;2022-12-07T14:43:18;4.60;99.90
37240;DHT22;23130;48.760;9.178;2022-12-07T14:45:44;4.60;99.90
37240;DHT22;23130;48.760;9.178;2022-12-07T14:48:14;4.60;99.90
37240;DHT22;23130;48.760;9.178;2022-12-07T14:50:45;4.50;99.90
37240;DHT22;23130;48.760;9.178;2022-12-07T14:53:16;4.50;99.90
37240;DHT22;23130;48.760;9.178;2022-12-07T14:55:42;4.40;99.90
37240;DHT22;23130;48.760;9.178;2022-12-07T14:58:15;4.40;99.90
37240;DHT22;23130;48.760;9.178;2022-12-07T15:00:41;4.40;99.90
37240;DHT22;23130;48.760;9.178;2022-12-07T15:03:07;4.30;99.90
37240;DHT22;23130;48.760;9.178;2022-12-07T15:05:33;4.30;99.90
37240;DHT22;23130;48.760;9.178;2022-12-07T15:07:59;4.30;99.90
37240;DHT22;23130;48.760;9.178;2022-12-07T15:10:30;4.20;99.90
37240;DHT22;23130;48.760;9.178;2022-12-07T15:13:01;4.20;99.90
37240;DHT22;23130;48.760;9.178;2022-12-07T15:15:51;4.20;99.90
37240;DHT22;23130;48.760;9.178;2022-12-07T15:18:18;4.20;99.90
37240;DHT22;23130;48.760;9.178;2022-12-07T15:20:44;4.10;99.90
37240;DHT22;23130;48.760;9.178;2022-12-07T15:23:11;4.10;99.90
37240;DHT22;23130;48.760;9.178;2022-12-07T15:25:40;4.10;99.90
37240;DHT22;23130;48.760;9.178;2022-12-07T15:28:05;4.10;99.90
37240;DHT22;23130;48.760;9.178;2022-12-07T15:30:31;4.10;99.90
37240;DHT22;23130;48.760;9.178;2022-12-07T15:32:56;4.10;99.90
37240;DHT22;23130;48.760;9.178;2022-12-07T15:35:22;4.10;99.90
37240;DHT22;23130;48.760;9.178;2022-12-07T15:37:49;4.00;99.90
37240;DHT22;23130;48.760;9.178;2022-12-07T15:40:14;4.00;99.90
37240;DHT22;23130;48.760;9.178;2022-12-07T15:42:40;4.00;99.90
37240;DHT22;23130;48.760;9.178;2022-12-07T15:45:07;4.00;99.90
37240;DHT22;23130;48.760;9.178;2022-12-07T15:47:42;3.90;99.90
37240;DHT22;23130;48.760;9.178;2022-12-07T15:50:10;3.90;99.90
37240;DHT22;23130;48.760;9.178;2022-12-07T15:52:37;3.80;99.90
37240;DHT22;23130;48.760;9.178;2022-12-07T15:55:03;3.80;99.90
37240;DHT22;23130;48.760;9.178;2022-12-07T15:57:35;3.80;99.90
37240;DHT22;23130;48.760;9.178;2022-12-07T16:00:03;3.80;99.90
37240;DHT22;23130;48.760;9.178;2022-12-07T16:02:29;3.70;99.90
37240;DHT22;23130;48.760;9.178;2022-12-07T16:04:55;3.70;99.90
37240;DHT22;23130;48.760;9.178;2022-12-07T16:07:21;3.60;99.90
37240;DHT22;23130;48.760;9.178;2022-12-07T16:09:47;3.60;99.90
37240;DHT22;23130;48.760;9.178;2022-12-07T16:12:13;3.60;99.90
37240;DHT22;23130;48.760;9.178;2022-12-07T16:14:39;3.50;99.90
37240;DHT22;23130;48.760;9.178;2022-12-07T16:17:06;3.50;99.90
37240;DHT22;23130;48.760;9.178;2022-12-07T16:19:33;3.50;99.90
37240;DHT22;23130;48.760;9.178;2022-12-07T16:21:58;3.40;99.90
37240;DHT22;23130;48.760;9.178;2022-12-07T16:24:27;3.40;99.90
37240;DHT22;23130;48.760;9.178;2022-12-07T16:26:53;3.30;99.90
37240;DHT22;23130;48.760;9.178;2022-12-07T16:29:20;3.30;99.90
37240;DHT22;23130;48.760;9.178;2022-12-07T16:31:45;3.30;99.90
37240;DHT22;23130;48.760;9.178;2022-12-07T16:34:14;3.20;99.90
37240;DHT22;23130;48.760;9.178;2022-12-07T16:36:40;3.20;99.90
37240;DHT22;23130;48.760;9.178;2022-12-07T16:39:06;3.10;99.90
37240;DHT22;23130;48.760;9.178;2022-12-07T16:41:33;3.10;99.90
37240;DHT22;23130;48.760;9.178;2022-12-07T16:44:06;3.10;99.90
37240;DHT22;23130;48.760;9.178;2022-12-07T16:46:34;3.00;99.90
37240;DHT22;23130;48.760;9.178;2022-12-07T16:49:00;2.90;99.90
37240;DHT22;23130;48.760;9.178;2022-12-07T16:51:26;2.80;99.90
37240;DHT22;23130;48.760;9.178;2022-12-07T16:53:52;2.70;99.90
37240;DHT22;23130;48.760;9.178;2022-12-07T16:56:18;2.70;99.90
37240;DHT22;23130;48.760;9.178;2022-12-07T16:58:44;2.60;99.90
37240;DHT22;23130;48.760;9.178;2022-12-07T17:01:13;2.50;99.90
37240;DHT22;23130;48.760;9.178;2022-12-07T17:03:39;2.30;99.90
37240;DHT22;23130;48.760;9.178;2022-12-07T17:06:16;2.20;99.90
37240;DHT22;23130;48.760;9.178;2022-12-07T17:08:42;2.10;99.90
37240;DHT22;23130;48.760;9.178;2022-12-07T17:11:28;2.00;99.90
37240;DHT22;23130;48.760;9.178;2022-12-07T17:13:56;2.00;99.90
37240;DHT22;23130;48.760;9.178;2022-12-07T17:16:40;1.90;99.90
37240;DHT22;23130;48.760;9.178;2022-12-07T17:19:07;1.90;99.90
37240;DHT22;23130;48.760;9.178;2022-12-07T17:21:33;1.90;99.90
37240;DHT22;23130;48.760;9.178;2022-12-07T17:24:01;1.90;99.90
37240;DHT22;23130;48.760;9.178;2022-12-07T17:26:28;1.90;99.90
37240;DHT22;23130;48.760;9.178;2022-12-07T17:28:55;1.90;99.90
37240;DHT22;23130;48.760;9.178;2022-12-07T17:31:22;2.00;99.90
37240;DHT22;23130;48.760;9.178;2022-12-07T17:33:48;2.10;99.90
37240;DHT22;23130;48.760;9.178;2022-12-07T17:36:25;2.10;99.90
37240;DHT22;23130;48.760;9.178;2022-12-07T17:38:51;2.30;99.90
37240;DHT22;23130;48.760;9.178;2022-12-07T17:41:23;2.40;99.90
37240;DHT22;23130;48.760;9.178;2022-12-07T17:44:09;2.40;99.90
37240;DHT22;23130;48.760;9.178;2022-12-07T17:46:36;2.50;99.90
37240;DHT22;23130;48.760;9.178;2022-12-07T17:49:02;2.50;99.90
37240;DHT22;23130;48.760;9.178;2022-12-07T17:51:28;2.60;99.90